createdAt,value
2023-01-18T00:00:48.836Z,1.47
2023-01-18T00:06:14.871Z,1.90
2023-01-18T00:11:37.823Z,1.40
2023-01-18T00:17:00.848Z,1.43
2023-01-18T00:22:24.856Z,1.73
2023-01-18T00:27:51.849Z,1.60
2023-01-18T00:33:15.883Z,1.57
2023-01-18T00:38:40.846Z,1.70
2023-01-18T00:44:03.830Z,1.30
2023-01-18T00:49:26.869Z,1.57
2023-01-18T00:54:51.878Z,1.50
2023-01-18T01:00:17.933Z,1.33
2023-01-18T01:05:58.889Z,1.40
2023-01-18T01:11:23.907Z,1.53
2023-01-18T01:17:03.870Z,1.43
2023-01-18T01:22:44.929Z,1.70
2023-01-18T01:28:09.866Z,1.50
2023-01-18T01:33:32.941Z,1.23
2023-01-18T01:38:56.882Z,1.40
2023-01-18T01:44:53.908Z,1.57
2023-01-18T01:50:22.893Z,1.20
2023-01-18T01:55:46.887Z,1.47
2023-01-18T02:01:12.027Z,1.47
2023-01-18T02:06:40.884Z,1.27
2023-01-18T02:12:05.888Z,1.30
2023-01-18T02:17:50.910Z,1.20
2023-01-18T02:23:43.905Z,1.37
2023-01-18T02:29:14.955Z,1.23
2023-01-18T02:34:48.100Z,1.10
2023-01-18T02:40:20.919Z,1.30
2023-01-18T02:46:05.991Z,1.20
2023-01-18T02:51:28.913Z,1.10
2023-01-18T02:56:55.937Z,0.90
2023-01-18T03:02:23.951Z,0.97
2023-01-18T03:07:55.979Z,1.40
2023-01-18T03:13:24.913Z,1.07
2023-01-18T03:19:07.922Z,1.10
2023-01-18T03:24:30.920Z,1.40
2023-01-18T03:30:10.928Z,1.20
2023-01-18T03:35:37.939Z,1.17
2023-01-18T03:41:01.944Z,1.17
2023-01-18T03:46:27.981Z,1.20
2023-01-18T03:52:07.943Z,1.00
2023-01-18T03:57:38.943Z,1.20
2023-01-18T04:03:03.995Z,1.13
2023-01-18T04:08:28.951Z,1.50
2023-01-18T04:13:54.381Z,1.40
2023-01-18T04:19:16.948Z,1.17
2023-01-18T04:24:41.946Z,1.13
2023-01-18T04:30:05.943Z,1.20
2023-01-18T04:35:29.950Z,1.10
2023-01-18T04:40:54.978Z,0.83
2023-01-18T04:46:19.045Z,1.20
2023-01-18T04:51:41.961Z,1.40
2023-01-18T04:57:06.961Z,1.20
2023-01-18T05:02:30.041Z,1.07
2023-01-18T05:07:59.986Z,1.00
2023-01-18T05:13:24.979Z,1.00
2023-01-18T05:18:47.999Z,1.10
2023-01-18T05:24:10.977Z,0.90
2023-01-18T05:29:35.975Z,1.40
2023-01-18T05:34:58.987Z,1.20
2023-01-18T05:40:24.006Z,1.43
2023-01-18T05:45:50.034Z,1.60
2023-01-18T05:51:13.023Z,1.40
2023-01-18T05:56:36.005Z,1.80
2023-01-18T06:02:01.046Z,1.30
2023-01-18T06:07:24.004Z,1.10
2023-01-18T06:12:47.019Z,1.33
2023-01-18T06:18:12.035Z,1.30
2023-01-18T06:23:36.018Z,1.10
2023-01-18T06:29:00.040Z,1.10
2023-01-18T06:34:25.464Z,1.07
2023-01-18T06:39:48.024Z,1.17
2023-01-18T06:45:11.040Z,1.10
2023-01-18T06:50:36.018Z,1.20
2023-01-18T06:56:06.045Z,1.00
2023-01-18T07:01:29.382Z,1.10
2023-01-18T07:06:54.041Z,1.10
2023-01-18T07:12:17.041Z,0.90
2023-01-18T07:17:40.044Z,1.00
2023-01-18T07:23:05.054Z,0.90
2023-01-18T07:28:28.069Z,0.67
2023-01-18T07:33:51.028Z,0.73
2023-01-18T07:39:16.070Z,0.77
2023-01-18T07:44:39.066Z,0.87
2023-01-18T07:50:02.069Z,0.73
2023-01-18T07:55:28.065Z,1.30
2023-01-18T08:00:51.098Z,1.10
2023-01-18T08:06:16.102Z,1.00
2023-01-18T08:11:41.117Z,1.00
2023-01-18T08:17:04.061Z,1.33
2023-01-18T08:22:27.098Z,1.30
2023-01-18T08:27:52.079Z,3.07
2023-01-18T08:33:16.086Z,2.43
2023-01-18T08:38:40.054Z,2.17
2023-01-18T08:44:05.085Z,2.00
2023-01-18T08:49:28.085Z,1.50
2023-01-18T08:54:51.096Z,1.40
2023-01-18T09:00:17.089Z,1.60
2023-01-18T09:05:41.112Z,1.43
2023-01-18T09:11:09.082Z,1.00
2023-01-18T09:16:34.096Z,1.10
2023-01-18T09:21:58.267Z,1.00
2023-01-18T09:27:21.136Z,1.10
2023-01-18T09:32:46.118Z,1.27
2023-01-18T09:38:10.130Z,1.20
2023-01-18T09:43:37.125Z,1.60
2023-01-18T09:49:08.123Z,1.37
2023-01-18T09:54:42.143Z,1.30
2023-01-18T10:00:11.147Z,1.13
2023-01-18T10:05:40.154Z,1.13
2023-01-18T10:11:12.155Z,1.27
2023-01-18T10:16:35.149Z,1.23
2023-01-18T10:22:09.125Z,1.20
2023-01-18T10:27:44.116Z,1.20
2023-01-18T10:33:10.141Z,1.00
2023-01-18T10:38:37.164Z,1.50
2023-01-18T10:44:00.139Z,1.53
2023-01-18T10:49:42.134Z,1.20
2023-01-18T10:55:09.140Z,1.30
2023-01-18T11:00:39.216Z,1.60
2023-01-18T11:06:02.154Z,1.53
2023-01-18T11:11:57.209Z,1.60
2023-01-18T11:17:25.158Z,1.80
2023-01-18T11:23:01.644Z,2.60
2023-01-18T11:50:46.160Z,2.67
2023-01-18T11:56:14.170Z,2.83
2023-01-18T12:02:00.197Z,2.50
2023-01-18T12:07:39.165Z,3.03
2023-01-18T12:13:20.288Z,2.57
2023-01-18T12:19:23.179Z,2.77
2023-01-18T12:25:04.194Z,3.67
2023-01-18T12:30:41.212Z,3.63
2023-01-18T12:36:28.194Z,3.50
2023-01-18T12:41:59.203Z,4.10
2023-01-18T12:47:41.225Z,3.40
2023-01-18T12:53:07.205Z,3.27
2023-01-18T12:58:36.226Z,3.90
2023-01-18T13:04:09.200Z,3.00
2023-01-18T13:09:40.225Z,3.23
2023-01-18T13:15:11.207Z,3.47
2023-01-18T13:20:39.227Z,3.80
2023-01-18T13:26:11.210Z,3.30
2023-01-18T13:31:45.206Z,2.93
2023-01-18T13:37:14.844Z,2.60
2023-01-18T13:42:42.229Z,2.97
2023-01-18T13:48:09.235Z,2.37
2023-01-18T13:53:43.243Z,2.70
2023-01-18T13:59:13.231Z,2.00
2023-01-18T14:04:43.232Z,2.10
2023-01-18T14:10:10.235Z,2.33
2023-01-18T14:15:39.259Z,2.03
2023-01-18T14:21:19.257Z,2.03
2023-01-18T14:26:45.250Z,2.10
2023-01-18T14:32:09.260Z,1.80
2023-01-18T14:37:42.400Z,1.67
2023-01-18T14:43:08.250Z,1.60
2023-01-18T14:48:33.277Z,1.17
2023-01-18T14:54:01.257Z,1.20
2023-01-18T14:59:36.267Z,1.10
2023-01-18T15:05:02.291Z,1.30
2023-01-18T15:10:30.244Z,1.40
2023-01-18T15:15:54.312Z,1.40
2023-01-18T15:21:20.313Z,1.77
2023-01-18T15:26:50.299Z,1.60
2023-01-18T15:32:18.273Z,2.03
2023-01-18T15:37:44.521Z,2.10
2023-01-18T15:43:13.274Z,2.40
2023-01-18T15:48:43.277Z,2.27
2023-01-18T15:54:08.287Z,2.13
2023-01-18T15:59:35.291Z,3.17
2023-01-18T16:04:58.291Z,3.20
2023-01-18T16:10:36.288Z,2.10
2023-01-18T16:16:22.350Z,2.73
2023-01-18T16:21:54.294Z,1.97
2023-01-18T16:27:25.288Z,2.80
2023-01-18T16:32:50.316Z,3.37
2023-01-18T16:38:13.312Z,2.13
2023-01-18T16:43:37.302Z,2.13
2023-01-18T16:49:02.328Z,2.20
2023-01-18T16:54:25.300Z,2.57
2023-01-18T16:59:48.648Z,2.50
2023-01-18T17:05:14.299Z,2.27
2023-01-18T17:10:43.320Z,2.63
2023-01-18T17:16:06.345Z,3.07
2023-01-18T17:21:31.353Z,2.20
2023-01-18T17:26:56.316Z,2.00
2023-01-18T17:32:19.328Z,2.00
2023-01-18T17:37:44.335Z,2.10
2023-01-18T17:43:07.336Z,2.90
2023-01-18T17:48:45.339Z,1.97
2023-01-18T17:54:16.727Z,2.67
2023-01-18T17:59:43.348Z,2.13
2023-01-18T18:05:06.347Z,1.97
2023-01-18T18:10:31.394Z,2.20
2023-01-18T18:15:56.362Z,2.00
2023-01-18T18:21:21.348Z,2.43
2023-01-18T18:26:46.408Z,2.80
2023-01-18T18:32:09.359Z,2.47
2023-01-18T18:37:32.394Z,2.57
2023-01-18T18:43:02.412Z,2.30
2023-01-18T18:48:26.373Z,2.40
2023-01-18T18:53:49.369Z,1.97
2023-01-18T18:59:14.370Z,1.97
2023-01-18T19:04:37.365Z,1.70
2023-01-18T19:10:00.404Z,2.30
2023-01-18T19:15:25.369Z,2.83
2023-01-18T19:20:48.423Z,3.03
2023-01-18T19:26:11.411Z,2.20
2023-01-18T19:31:36.406Z,2.17
2023-01-18T19:36:59.387Z,2.47
2023-01-18T19:42:22.383Z,2.00
2023-01-18T19:47:47.428Z,1.60
2023-01-18T19:53:10.426Z,1.70
2023-01-18T19:58:33.405Z,1.77
2023-01-18T20:03:58.444Z,1.70
2023-01-18T20:09:29.370Z,1.80
2023-01-18T20:15:01.395Z,1.60
2023-01-18T20:20:32.500Z,2.00
2023-01-18T20:26:08.414Z,1.60
2023-01-18T20:31:31.452Z,1.73
2023-01-18T20:36:56.427Z,1.90
2023-01-18T20:42:19.703Z,2.40
2023-01-18T20:47:42.419Z,2.03
2023-01-18T20:53:07.433Z,2.80
2023-01-18T20:58:30.431Z,2.50
2023-01-18T21:03:55.494Z,2.30
2023-01-18T21:09:20.454Z,1.97
2023-01-18T21:14:43.427Z,1.80
2023-01-18T21:20:06.432Z,2.00
2023-01-18T21:25:31.456Z,1.63
2023-01-18T21:30:54.447Z,1.70
2023-01-18T21:36:21.448Z,1.67
2023-01-18T21:42:04.502Z,1.67
2023-01-18T21:47:27.444Z,1.30
2023-01-18T21:53:09.450Z,1.33
2023-01-18T21:58:51.466Z,1.53
2023-01-18T22:04:33.477Z,1.80
2023-01-18T22:10:04.623Z,1.40
2023-01-18T22:15:30.494Z,1.67
2023-01-18T22:21:02.478Z,1.70
2023-01-18T22:26:25.460Z,1.90
2023-01-18T22:31:50.447Z,2.13
2023-01-18T22:37:13.480Z,1.77
2023-01-18T22:42:36.480Z,2.00
2023-01-18T22:48:01.933Z,1.67
2023-01-18T22:53:24.484Z,2.07
2023-01-18T22:58:48.466Z,1.80
2023-01-18T23:04:13.467Z,1.27
2023-01-18T23:09:36.481Z,1.90
2023-01-18T23:15:17.512Z,2.63
2023-01-18T23:20:42.496Z,2.00
2023-01-18T23:26:07.513Z,1.77
2023-01-18T23:31:32.605Z,1.73
2023-01-18T23:36:57.523Z,1.20
2023-01-18T23:42:37.503Z,1.60
2023-01-18T23:48:18.499Z,1.57
2023-01-18T23:54:00.517Z,1.57
2023-01-18T23:59:23.512Z,1.73
